Terminal Aerodrome Forecast
Issued by NWS Sioux Falls, SD

Home | Current Version | Previous Version | Graphics & Text | Print | Product List | Glossary On
Versions: 1 2 3 4 5 6 7 8 9 10 11 12 13 14 15 16 17
235
FTUS43 KFSD 272320
TAFFSD
TAF
KFSD 272320Z 2800/2824 03004KT P6SM SCT040
     FM280800 35004KT P6SM SHRA OVC035
      TEMPO 2808/2812 4SM TS OVC025CB
     FM281200 03007KT P6SM SHRA VCTS OVC025CB
     FM281800 35006KT P6SM VCSH OVC025=

USA.gov is the U.S. government's official web portal to all federal, state and local government web resources and services.